createdAt,value
2023-02-14T00:00:24.074Z,50.42
2023-02-14T00:02:50.541Z,54.67
2023-02-14T00:05:16.957Z,45.28
2023-02-14T00:07:43.446Z,51.38
2023-02-14T00:10:10.135Z,45.08
2023-02-14T00:12:36.500Z,44.55
2023-02-14T00:15:21.482Z,41.58
2023-02-14T00:17:59.554Z,38.00
2023-02-14T00:20:27.655Z,31.15
2023-02-14T00:22:54.138Z,35.70
2023-02-14T00:25:20.586Z,34.28
2023-02-14T00:27:47.075Z,39.85
2023-02-14T00:30:14.213Z,34.90
2023-02-14T00:32:41.258Z,36.15
2023-02-14T00:35:09.398Z,36.40
2023-02-14T00:37:36.486Z,34.95
2023-02-14T00:40:03.074Z,27.48
2023-02-14T00:42:29.471Z,27.48
2023-02-14T00:44:55.913Z,31.60
2023-02-14T00:47:22.438Z,30.77
2023-02-14T00:49:48.879Z,34.13
2023-02-14T00:52:15.406Z,37.95
2023-02-14T00:54:41.835Z,43.47
2023-02-14T00:57:08.219Z,42.35
2023-02-14T00:59:34.648Z,43.25
2023-02-14T01:02:01.071Z,39.17
2023-02-14T01:04:27.510Z,46.63
2023-02-14T01:06:53.888Z,38.85
2023-02-14T01:09:20.248Z,40.17
2023-02-14T01:11:46.677Z,38.40
2023-02-14T01:14:13.045Z,41.15
2023-02-14T01:16:39.849Z,38.55
2023-02-14T01:19:06.271Z,35.13
2023-02-14T01:21:33.776Z,31.77
2023-02-14T01:24:03.090Z,32.08
2023-02-14T01:26:29.901Z,34.65
2023-02-14T01:28:56.687Z,36.38
2023-02-14T01:31:25.961Z,34.42
2023-02-14T01:33:53.707Z,35.95
2023-02-14T01:36:31.725Z,35.30
2023-02-14T01:39:02.114Z,38.80
2023-02-14T01:41:32.051Z,38.20
2023-02-14T01:44:04.550Z,36.03
2023-02-14T01:46:34.362Z,39.58
2023-02-14T01:49:29.999Z,39.80
2023-02-14T01:52:03.862Z,37.20
2023-02-14T01:54:32.198Z,45.47
2023-02-14T01:57:01.451Z,62.85
2023-02-14T01:59:32.017Z,62.97
2023-02-14T02:01:58.475Z,55.28
2023-02-14T02:04:38.170Z,45.70
2023-02-14T02:07:10.512Z,61.35
2023-02-14T02:09:42.433Z,36.58
2023-02-14T02:12:08.877Z,39.38
2023-02-14T02:14:35.424Z,31.88
2023-02-14T02:17:17.938Z,31.90
2023-02-14T02:20:03.334Z,32.83
2023-02-14T02:22:32.562Z,33.97
2023-02-14T02:25:29.383Z,33.20
2023-02-14T02:28:16.535Z,32.53
2023-02-14T02:30:46.088Z,36.20
2023-02-14T02:33:43.450Z,38.15
2023-02-14T02:36:28.330Z,37.03
2023-02-14T02:39:00.314Z,38.92
2023-02-14T02:41:49.598Z,36.65
2023-02-14T02:44:27.529Z,37.83
2023-02-14T02:47:17.064Z,36.45
2023-02-14T02:50:26.875Z,36.85
2023-02-14T02:53:08.174Z,35.10
2023-02-14T02:56:01.425Z,36.15
2023-02-14T02:58:34.424Z,38.75
2023-02-14T03:01:07.472Z,39.03
2023-02-14T03:03:53.651Z,40.67
2023-02-14T03:06:20.058Z,44.15
2023-02-14T03:08:46.471Z,40.38
2023-02-14T03:11:13.194Z,44.08
2023-02-14T03:13:44.961Z,47.05
2023-02-14T03:16:25.828Z,44.88
2023-02-14T03:19:32.195Z,44.78
2023-02-14T03:22:22.470Z,44.72
2023-02-14T03:24:56.529Z,43.90
2023-02-14T03:27:30.530Z,45.35
2023-02-14T03:30:15.726Z,43.45
2023-02-14T03:32:46.504Z,62.45
2023-02-14T03:35:20.314Z,66.55
2023-02-14T03:37:48.531Z,69.78
2023-02-14T03:40:22.832Z,61.05
2023-02-14T03:42:53.289Z,51.78
2023-02-14T03:45:44.268Z,54.15
2023-02-14T03:48:13.194Z,39.30
2023-02-14T03:50:41.699Z,41.83
2023-02-14T03:53:10.227Z,40.20
2023-02-14T03:55:41.770Z,32.20
2023-02-14T03:58:22.530Z,50.67
2023-02-14T04:00:50.695Z,40.35
2023-02-14T04:03:18.277Z,47.58
2023-02-14T04:05:46.631Z,67.18
2023-02-14T04:08:20.930Z,50.22
2023-02-14T04:10:47.330Z,42.53
2023-02-14T04:13:13.707Z,42.47
2023-02-14T04:15:40.118Z,43.30
2023-02-14T04:18:25.188Z,41.75
2023-02-14T04:20:51.788Z,43.50
2023-02-14T04:23:18.168Z,51.60
2023-02-14T04:25:45.574Z,59.65
2023-02-14T04:28:12.537Z,49.60
2023-02-14T04:30:39.070Z,51.10
2023-02-14T04:33:05.572Z,47.75
2023-02-14T04:35:31.948Z,51.35
2023-02-14T04:37:58.344Z,49.88
2023-02-14T04:40:24.831Z,62.05
2023-02-14T04:42:51.217Z,57.03
2023-02-14T04:45:17.610Z,50.67
2023-02-14T04:47:43.975Z,43.17
2023-02-14T04:50:10.392Z,43.47
2023-02-14T04:52:36.818Z,42.03
2023-02-14T04:55:04.347Z,41.40
2023-02-14T04:57:31.214Z,39.35
2023-02-14T04:59:57.601Z,34.58
2023-02-14T05:02:24.098Z,40.50
2023-02-14T05:04:50.599Z,36.42
2023-02-14T05:07:17.362Z,36.25
2023-02-14T05:09:43.727Z,38.10
2023-02-14T05:12:10.243Z,34.72
2023-02-14T05:14:36.605Z,37.13
2023-02-14T05:17:03.079Z,36.08
2023-02-14T05:19:29.437Z,37.47
2023-02-14T05:21:55.801Z,32.90
2023-02-14T05:24:22.211Z,35.08
2023-02-14T05:26:48.605Z,33.88
2023-02-14T05:29:14.990Z,31.90
2023-02-14T05:31:41.524Z,35.22
2023-02-14T05:34:08.017Z,33.38
2023-02-14T05:36:34.455Z,34.97
2023-02-14T05:39:00.893Z,36.58
2023-02-14T05:41:27.337Z,29.75
2023-02-14T05:43:53.716Z,36.05
2023-02-14T05:46:20.124Z,33.75
2023-02-14T05:48:46.517Z,33.28
2023-02-14T05:51:13.214Z,39.65
2023-02-14T05:53:39.585Z,46.38
2023-02-14T05:56:06.196Z,41.50
2023-02-14T05:58:32.898Z,54.80
2023-02-14T06:01:00.073Z,60.60
2023-02-14T06:03:27.016Z,52.42
2023-02-14T06:05:53.425Z,53.38
2023-02-14T06:08:19.844Z,51.03
2023-02-14T06:10:46.315Z,42.97
2023-02-14T06:13:12.720Z,42.92
2023-02-14T06:15:39.278Z,41.20
2023-02-14T06:18:06.142Z,70.85
2023-02-14T06:20:32.719Z,87.88
2023-02-14T06:22:59.254Z,91.80
2023-02-14T06:25:26.105Z,64.95
2023-02-14T06:27:56.878Z,66.30
2023-02-14T06:30:23.643Z,48.10
2023-02-14T06:32:50.326Z,49.22
2023-02-14T06:35:17.093Z,39.17
2023-02-14T06:37:45.168Z,42.70
2023-02-14T06:40:12.748Z,38.70
2023-02-14T06:42:39.163Z,38.15
2023-02-14T06:45:06.152Z,31.15
2023-02-14T06:47:34.875Z,34.70
2023-02-14T06:50:01.594Z,32.88
2023-02-14T06:52:27.957Z,34.00
2023-02-14T06:54:54.572Z,34.78
2023-02-14T06:57:20.983Z,30.85
2023-02-14T06:59:47.376Z,38.03
2023-02-14T07:02:13.813Z,34.22
2023-02-14T07:04:40.214Z,35.00
2023-02-14T07:07:06.616Z,36.00
2023-02-14T07:09:33.011Z,32.38
2023-02-14T07:11:59.403Z,38.97
2023-02-14T07:14:25.922Z,36.17
2023-02-14T07:16:52.301Z,37.47
2023-02-14T07:19:19.189Z,40.85
2023-02-14T07:21:45.559Z,39.88
2023-02-14T07:24:11.972Z,37.95
2023-02-14T07:26:38.326Z,42.90
2023-02-14T07:29:05.130Z,44.22
2023-02-14T07:31:31.602Z,40.35
2023-02-14T07:34:00.917Z,37.13
2023-02-14T07:36:27.592Z,37.78
2023-02-14T07:38:55.991Z,39.50
2023-02-14T07:41:22.690Z,31.40
2023-02-14T07:43:49.061Z,35.03
2023-02-14T07:46:17.331Z,33.30
2023-02-14T07:48:43.844Z,29.70
2023-02-14T07:51:10.219Z,32.65
2023-02-14T07:53:36.634Z,33.22
2023-02-14T07:56:03.004Z,29.75
2023-02-14T07:58:29.381Z,29.92
2023-02-14T08:00:55.789Z,40.25
2023-02-14T08:03:22.170Z,33.40
2023-02-14T08:05:56.909Z,36.78
2023-02-14T08:08:27.958Z,48.78
2023-02-14T08:10:54.438Z,47.28
2023-02-14T08:13:20.894Z,53.28
2023-02-14T08:16:05.731Z,58.30
2023-02-14T08:18:33.441Z,72.50
2023-02-14T08:21:00.258Z,59.35
2023-02-14T08:23:27.035Z,62.70
2023-02-14T08:25:53.541Z,74.50
2023-02-14T08:28:21.826Z,57.90
2023-02-14T08:30:48.520Z,78.45
2023-02-14T08:33:14.963Z,57.05
2023-02-14T08:35:41.346Z,55.72
2023-02-14T08:38:07.989Z,49.50
2023-02-14T08:40:35.250Z,44.20
2023-02-14T08:43:01.694Z,39.28
2023-02-14T08:45:28.099Z,37.83
2023-02-14T08:47:54.539Z,36.45
2023-02-14T08:50:21.060Z,34.90
2023-02-14T08:52:47.532Z,35.08
2023-02-14T08:55:14.235Z,32.92
2023-02-14T08:57:40.788Z,34.92
2023-02-14T09:00:09.790Z,38.20
2023-02-14T09:02:36.408Z,35.22
2023-02-14T09:05:02.846Z,34.88
2023-02-14T09:07:29.282Z,34.15
2023-02-14T09:09:55.735Z,38.17
2023-02-14T09:12:22.166Z,34.17
2023-02-14T09:14:48.537Z,35.35
2023-02-14T09:17:15.695Z,30.98
2023-02-14T09:19:42.442Z,34.70
2023-02-14T09:22:10.571Z,31.63
2023-02-14T09:24:38.969Z,32.33
2023-02-14T09:27:05.388Z,33.90
2023-02-14T09:29:32.165Z,36.30
2023-02-14T09:32:00.096Z,34.72
2023-02-14T09:34:27.771Z,35.55
2023-02-14T09:37:12.759Z,30.95
2023-02-14T09:39:39.294Z,31.17
2023-02-14T09:42:34.193Z,30.27
2023-02-14T09:45:05.420Z,27.08
2023-02-14T09:47:57.146Z,29.97
2023-02-14T09:50:44.864Z,31.83
2023-02-14T09:53:25.866Z,29.27
2023-02-14T09:55:59.739Z,27.80
2023-02-14T09:58:36.639Z,28.40
2023-02-14T10:01:15.593Z,26.73
2023-02-14T10:03:52.363Z,23.08
2023-02-14T10:06:49.044Z,24.85
2023-02-14T10:09:40.213Z,23.83
2023-02-14T10:12:13.090Z,21.80
2023-02-14T10:14:40.883Z,24.08
2023-02-14T10:17:35.896Z,21.15
2023-02-14T10:20:05.691Z,21.98
2023-02-14T10:22:45.817Z,25.30
2023-02-14T10:25:32.511Z,15.85
2023-02-14T10:28:01.509Z,20.83
2023-02-14T10:30:37.070Z,20.85
2023-02-14T10:33:16.423Z,16.60
2023-02-14T10:36:18.214Z,17.70
2023-02-14T10:38:59.174Z,17.10
2023-02-14T10:41:53.145Z,16.42
2023-02-14T10:44:22.408Z,17.65
2023-02-14T10:47:01.854Z,14.40
2023-02-14T10:49:49.734Z,15.82
2023-02-14T10:52:31.741Z,19.20
2023-02-14T10:55:00.594Z,16.20
2023-02-14T10:57:34.219Z,17.88
2023-02-14T11:00:02.471Z,13.68
2023-02-14T11:02:37.807Z,14.48
2023-02-14T11:05:04.971Z,15.45
2023-02-14T11:07:31.407Z,13.52
2023-02-14T11:09:57.793Z,14.52
2023-02-14T11:12:39.437Z,11.05
2023-02-14T11:15:16.342Z,13.60
2023-02-14T11:17:42.758Z,13.15
2023-02-14T11:20:30.193Z,12.60
2023-02-14T11:22:57.152Z,13.32
2023-02-14T11:25:29.115Z,14.95
2023-02-14T11:28:01.680Z,10.27
2023-02-14T11:30:31.664Z,11.85
2023-02-14T11:32:58.140Z,13.52
2023-02-14T11:35:30.123Z,10.82
2023-02-14T11:37:57.417Z,10.43
2023-02-14T11:40:32.181Z,13.27
2023-02-14T11:43:19.403Z,12.32
2023-02-14T11:45:47.589Z,12.52
2023-02-14T11:48:27.856Z,13.68
2023-02-14T11:51:14.246Z,13.00
2023-02-14T11:53:43.345Z,15.25
2023-02-14T11:56:09.805Z,15.10
2023-02-14T11:58:39.808Z,16.20
2023-02-14T12:01:06.704Z,18.38
2023-02-14T12:03:43.726Z,16.33
2023-02-14T12:06:10.243Z,15.95
2023-02-14T12:08:41.825Z,16.88
2023-02-14T12:11:22.652Z,13.25
2023-02-14T12:13:57.592Z,13.35
2023-02-14T12:16:48.819Z,14.68
2023-02-14T12:19:20.954Z,15.07
2023-02-14T12:24:17.879Z,16.70
2023-02-14T12:27:07.068Z,15.65
2023-02-14T12:29:39.042Z,20.75
2023-02-14T12:32:21.340Z,17.83
2023-02-14T12:37:23.314Z,16.83
2023-02-14T12:40:25.790Z,14.18
2023-02-14T12:42:57.993Z,16.95
2023-02-14T12:48:01.594Z,13.70
2023-02-14T12:50:55.414Z,17.38
2023-02-14T12:53:30.996Z,13.35
2023-02-14T12:56:19.023Z,16.20
2023-02-14T12:58:54.588Z,16.73
2023-02-14T13:01:32.810Z,13.93
2023-02-14T13:04:27.990Z,13.50
2023-02-14T13:06:57.960Z,13.43
2023-02-14T13:09:33.593Z,14.82
2023-02-14T13:12:17.142Z,11.10
2023-02-14T13:15:17.241Z,13.13
2023-02-14T13:17:51.251Z,11.77
2023-02-14T13:20:20.589Z,13.40
2023-02-14T13:22:48.201Z,14.75
2023-02-14T13:25:31.593Z,13.00
2023-02-14T13:28:04.398Z,15.60
2023-02-14T13:30:32.627Z,9.88
2023-02-14T13:33:03.340Z,12.13
2023-02-14T13:35:30.421Z,14.20
2023-02-14T13:38:16.161Z,15.98
2023-02-14T13:40:42.889Z,14.48
2023-02-14T13:43:09.526Z,13.52
2023-02-14T13:45:37.155Z,18.75
2023-02-14T13:48:22.061Z,16.85
2023-02-14T13:50:55.793Z,14.75
2023-02-14T13:53:32.871Z,14.70
2023-02-14T13:55:59.992Z,16.20
2023-02-14T13:58:27.409Z,13.85
2023-02-14T14:00:54.564Z,16.42
2023-02-14T14:03:30.043Z,17.40
2023-02-14T14:06:04.688Z,18.02
2023-02-14T14:08:31.963Z,17.15
2023-02-14T14:11:11.782Z,14.23
2023-02-14T14:13:41.171Z,13.80
2023-02-14T14:16:28.869Z,18.42
2023-02-14T14:19:30.253Z,14.32
2023-02-14T14:22:08.520Z,10.80
2023-02-14T14:24:39.472Z,14.68
2023-02-14T14:27:18.062Z,12.65
2023-02-14T14:29:50.627Z,14.05
2023-02-14T14:32:37.741Z,12.63
2023-02-14T14:35:15.734Z,17.02
2023-02-14T14:37:47.985Z,12.30
2023-02-14T14:40:24.806Z,12.88
2023-02-14T14:42:51.857Z,10.73
2023-02-14T14:45:27.021Z,12.10
2023-02-14T14:47:56.636Z,10.52
2023-02-14T14:50:31.710Z,11.88
2023-02-14T14:53:02.855Z,10.70
2023-02-14T14:55:34.241Z,11.90
2023-02-14T14:58:05.395Z,14.70
2023-02-14T15:00:37.131Z,13.02
2023-02-14T15:03:07.403Z,12.15
2023-02-14T15:05:42.315Z,15.02
2023-02-14T15:08:33.012Z,12.65
2023-02-14T15:11:38.257Z,13.23
2023-02-14T15:14:08.835Z,16.25
2023-02-14T15:16:40.461Z,13.77
2023-02-14T15:19:09.777Z,12.15
2023-02-14T15:21:36.328Z,11.70
2023-02-14T15:24:03.137Z,15.20
2023-02-14T15:26:34.390Z,17.30
2023-02-14T15:29:04.597Z,11.73
2023-02-14T15:31:34.644Z,13.07
2023-02-14T15:34:02.757Z,12.20
2023-02-14T15:36:30.228Z,11.20
2023-02-14T15:38:57.677Z,14.52
2023-02-14T15:41:24.913Z,13.32
2023-02-14T15:43:53.884Z,17.80
2023-02-14T15:46:29.685Z,13.52
2023-02-14T15:49:00.628Z,16.30
2023-02-14T15:51:29.706Z,15.80
2023-02-14T15:54:04.658Z,15.75
2023-02-14T15:56:43.131Z,14.65
2023-02-14T15:59:17.455Z,13.38
2023-02-14T16:01:50.615Z,11.43
2023-02-14T16:04:24.129Z,15.63
2023-02-14T16:07:03.301Z,14.60
2023-02-14T16:09:34.099Z,16.20
2023-02-14T16:12:12.655Z,11.63
2023-02-14T16:14:40.922Z,14.10
2023-02-14T16:17:12.395Z,16.45
2023-02-14T16:19:43.545Z,18.00
2023-02-14T16:22:32.130Z,20.35
2023-02-14T16:25:01.830Z,16.45
2023-02-14T16:27:28.194Z,14.23
2023-02-14T16:29:54.678Z,15.25
2023-02-14T16:32:22.707Z,17.55
2023-02-14T16:34:49.520Z,15.77
2023-02-14T16:37:24.999Z,15.40
2023-02-14T16:39:53.029Z,16.15
2023-02-14T16:42:19.552Z,17.55
2023-02-14T16:44:46.724Z,18.42
2023-02-14T16:47:14.205Z,15.85
2023-02-14T16:49:41.905Z,19.33
2023-02-14T16:52:14.824Z,19.98
2023-02-14T16:54:41.242Z,16.25
2023-02-14T16:57:11.914Z,17.02
2023-02-14T16:59:38.320Z,16.92
2023-02-14T17:02:04.862Z,16.13
2023-02-14T17:04:31.234Z,19.52
2023-02-14T17:06:57.858Z,19.35
2023-02-14T17:09:28.122Z,17.27
2023-02-14T17:11:57.196Z,19.35
2023-02-14T17:14:28.031Z,20.90
2023-02-14T17:16:55.097Z,22.17
2023-02-14T17:19:21.523Z,26.88
2023-02-14T17:21:48.567Z,23.55
2023-02-14T17:24:15.778Z,22.13
2023-02-14T17:26:42.206Z,26.05
2023-02-14T17:29:08.650Z,28.42
2023-02-14T17:31:35.115Z,31.98
2023-02-14T17:34:01.727Z,25.17
2023-02-14T17:36:28.235Z,24.00
2023-02-14T17:38:54.659Z,24.27
2023-02-14T17:41:24.023Z,22.50
2023-02-14T17:43:52.870Z,24.45
2023-02-14T17:46:19.392Z,22.63
2023-02-14T17:48:47.822Z,23.65
2023-02-14T17:51:15.861Z,21.15
2023-02-14T17:53:42.745Z,21.60
2023-02-14T17:56:11.765Z,21.27
2023-02-14T17:58:38.686Z,19.70
2023-02-14T18:01:07.147Z,18.13
2023-02-14T18:03:34.172Z,24.77
2023-02-14T18:06:01.579Z,19.23
2023-02-14T18:08:34.182Z,21.90
2023-02-14T18:11:04.631Z,20.35
2023-02-14T18:13:31.685Z,20.38
2023-02-14T18:16:01.568Z,24.08
2023-02-14T18:18:28.054Z,24.42
2023-02-14T18:20:59.076Z,23.98
2023-02-14T18:23:26.105Z,20.33
2023-02-14T18:25:58.338Z,22.85
2023-02-14T18:30:52.643Z,20.75
2023-02-14T18:33:19.450Z,32.60
2023-02-14T18:35:45.954Z,25.05
2023-02-14T18:38:13.135Z,29.35
2023-02-14T18:40:41.082Z,27.30
2023-02-14T18:43:07.508Z,27.08
2023-02-14T18:45:37.833Z,30.52
2023-02-14T18:48:04.878Z,33.25
2023-02-14T18:50:33.274Z,26.05
2023-02-14T18:52:59.643Z,25.77
2023-02-14T18:55:26.075Z,24.27
2023-02-14T18:57:52.433Z,24.27
2023-02-14T19:00:18.853Z,25.10
2023-02-14T19:02:45.272Z,27.85
2023-02-14T19:05:11.667Z,30.08
2023-02-14T19:07:38.045Z,32.85
2023-02-14T19:10:05.368Z,25.58
2023-02-14T19:12:33.287Z,23.13
2023-02-14T19:15:00.765Z,24.55
2023-02-14T19:17:27.463Z,29.90
2023-02-14T19:19:54.268Z,34.33
2023-02-14T19:22:20.888Z,27.02
2023-02-14T19:24:48.248Z,30.20
2023-02-14T19:27:14.621Z,31.70
2023-02-14T19:29:41.033Z,29.20
2023-02-14T19:32:07.492Z,32.88
2023-02-14T19:34:34.212Z,25.98
2023-02-14T19:37:01.155Z,26.77
2023-02-14T19:39:31.965Z,26.77
2023-02-14T19:41:58.990Z,31.23
2023-02-14T19:44:25.830Z,33.47
2023-02-14T19:46:54.321Z,28.40
2023-02-14T19:49:21.270Z,32.97
2023-02-14T19:51:49.342Z,27.60
2023-02-14T19:54:15.759Z,30.15
2023-02-14T19:56:44.252Z,31.02
2023-02-14T19:59:10.940Z,29.52
2023-02-14T20:01:41.306Z,34.30
2023-02-14T20:04:10.292Z,30.33
2023-02-14T20:06:37.553Z,28.25
2023-02-14T20:09:04.888Z,27.35
2023-02-14T20:11:36.096Z,25.00
2023-02-14T20:14:03.601Z,26.13
2023-02-14T20:16:31.437Z,27.80
2023-02-14T20:18:58.460Z,24.77
2023-02-14T20:21:28.009Z,28.58
2023-02-14T20:23:58.575Z,24.40
2023-02-14T20:26:24.940Z,26.05
2023-02-14T20:28:53.029Z,30.15
2023-02-14T20:31:19.699Z,31.17
2023-02-14T20:33:52.742Z,26.17
2023-02-14T20:36:19.920Z,28.75
2023-02-14T20:38:46.522Z,31.38
2023-02-14T20:41:14.160Z,28.77
2023-02-14T20:43:40.530Z,24.83
2023-02-14T20:46:07.223Z,27.20
2023-02-14T20:48:34.630Z,27.23
2023-02-14T20:51:15.326Z,25.90
2023-02-14T20:53:44.894Z,31.65
2023-02-14T20:56:12.137Z,28.55
2023-02-14T20:58:39.034Z,27.80
2023-02-14T21:01:10.668Z,30.77
2023-02-14T21:03:37.493Z,38.05
2023-02-14T21:06:08.892Z,34.15
2023-02-14T21:08:36.187Z,29.33
2023-02-14T21:11:03.965Z,29.58
2023-02-14T21:13:30.337Z,34.28
2023-02-14T21:16:05.623Z,32.15
2023-02-14T21:18:33.162Z,36.42
2023-02-14T21:21:04.792Z,31.65
2023-02-14T21:23:31.183Z,29.15
2023-02-14T21:25:57.568Z,36.30
2023-02-14T21:28:23.942Z,34.55
2023-02-14T21:30:50.360Z,35.80
2023-02-14T21:33:17.065Z,41.22
2023-02-14T21:35:43.543Z,35.40
2023-02-14T21:38:09.908Z,35.15
2023-02-14T21:40:36.268Z,38.92
2023-02-14T21:43:03.132Z,38.08
2023-02-14T21:45:48.288Z,44.47
2023-02-14T21:48:33.016Z,39.65
2023-02-14T21:50:59.867Z,40.97
2023-02-14T21:53:26.467Z,35.08
2023-02-14T21:55:52.851Z,35.05
2023-02-14T21:58:19.234Z,36.70
2023-02-14T22:00:47.891Z,32.28
2023-02-14T22:03:14.275Z,31.85
2023-02-14T22:05:40.656Z,37.58
2023-02-14T22:08:07.006Z,34.13
2023-02-14T22:10:33.359Z,38.67
2023-02-14T22:12:59.723Z,40.83
2023-02-14T22:15:26.111Z,32.33
2023-02-14T22:17:52.455Z,48.28
2023-02-14T22:20:18.939Z,40.75
2023-02-14T22:22:45.318Z,35.83
2023-02-14T22:25:11.810Z,36.83
2023-02-14T22:27:39.950Z,38.38
2023-02-14T22:30:07.686Z,34.65
2023-02-14T22:32:34.089Z,33.08
2023-02-14T22:35:00.447Z,37.90
2023-02-14T22:37:26.789Z,39.97
2023-02-14T22:39:53.146Z,37.92
2023-02-14T22:42:19.527Z,32.63
2023-02-14T22:44:45.880Z,38.90
2023-02-14T22:47:12.232Z,39.08
2023-02-14T22:49:38.585Z,42.28
2023-02-14T22:52:05.090Z,33.03
2023-02-14T22:54:31.515Z,35.58
2023-02-14T22:56:59.722Z,34.75
2023-02-14T22:59:28.167Z,35.08
2023-02-14T23:01:54.693Z,34.10
2023-02-14T23:04:22.613Z,38.67
2023-02-14T23:06:49.298Z,43.20
2023-02-14T23:09:15.743Z,37.78
2023-02-14T23:11:43.544Z,35.60
2023-02-14T23:14:30.659Z,37.08
2023-02-14T23:17:26.261Z,33.53
2023-02-14T23:20:11.312Z,39.15
2023-02-14T23:22:39.393Z,35.30
2023-02-14T23:25:08.028Z,37.80
2023-02-14T23:27:39.846Z,38.42
2023-02-14T23:30:08.798Z,36.38
2023-02-14T23:32:35.877Z,38.08
2023-02-14T23:35:02.313Z,34.78
2023-02-14T23:37:28.749Z,35.03
2023-02-14T23:39:55.130Z,31.58
2023-02-14T23:42:21.538Z,29.48
2023-02-14T23:44:48.987Z,34.55
2023-02-14T23:47:15.938Z,33.72
2023-02-14T23:49:42.880Z,36.45
2023-02-14T23:52:11.091Z,36.92
2023-02-14T23:54:37.928Z,31.52
2023-02-14T23:57:05.152Z,32.17
2023-02-14T23:59:31.630Z,34.88
